Corsicana, TX

8:32 PM CST on February 19, 2017 (GMT -0600)
Campbell-Corsicana Municipal | | Change Station

Elev 446 ft 32.03 °N, 96.40 °W | Updated 39 minutes ago

Scattered Clouds
Scattered Clouds
69 °F
Feels Like 69 °F
N
9
Wind Variable Wind from ESE

Today
High -- | Low -- °F
--% Chance of Precip.
Yesterday
High -- | Low -- °F
Precip. -- in
Pressure 29.86 in
Visibility 5.0 miles
Clouds Few 4200 ft
Scattered Clouds 7000 ft
Dew Point 67 °F
Humidity 93%
Rainfall 0.00 in
Snow Depth Not available.
7:03 AM 6:15 PM
Last Quarter, 38% visible
METAR KCRS 200153Z AUTO 12008KT 5SM BR FEW042 SCT070 21/19 A2987 RMK AO2 SLP111 T02060194
Pressure 29.86 in
Visibility 5.0 miles
Clouds Few 4200 ft
Scattered Clouds 7000 ft
Dew Point 67 °F
Humidity 93%
Rainfall 0.00 in
Snow Depth Not available.
7:03 AM 6:15 PM
Last Quarter, 38% visible
METAR KCRS 200153Z AUTO 12008KT 5SM BR FEW042 SCT070 21/19 A2987 RMK AO2 SLP111 T02060194

Get Your Daily Forecast Email!

Thanks for signing up!

Be on the lookout for a verification email in your inbox.

You'll start receiving the daily forecast at 8 AM.

×

10-Day Weather Forecast

Almanac

Astronomy

Feb. 19, 2017 Rise Set
Actual Time
Civil Twilight
Nautical Twilight
Astronomical Twilight
Moon
Length of Visible Light
Length of Day
Tomorrow will be .
, % of the Moon is Illuminated

Today's Extremes

State Highs State Lows

Community

WunderPhotos

Upload Photos

1,962,540 photos uploaded!

WunderBlog® & News

Nearby

Air Quality

  Air Quality AQ Index Pollutant
Not available.

Snow Depth

Station Depth Elevation

Earthquake Activity

City Distance Mag. Time & Date
Minimum magnitude displayed is 2.5.

Coastal Water Temperatures

Place Temperature

Stations

Nearby Weather Stations

Station Location Temp. Windchill Dew Point Humidity Wind Precip. Elev Updated Type
                   

Watches & Warnings

There are currently no watches in effect.